createdAt,value
2023-04-15T00:00:12.027Z,49.17
2023-04-15T00:02:18.819Z,49.16
2023-04-15T00:04:21.150Z,49.37
2023-04-15T00:06:22.850Z,49.13
2023-04-15T00:08:24.401Z,49.33
2023-04-15T00:10:30.484Z,49.35
2023-04-15T00:12:35.549Z,49.22
2023-04-15T00:14:37.093Z,49.26
2023-04-15T00:16:38.826Z,49.24
2023-04-15T00:18:43.438Z,49.32
2023-04-15T00:20:45.130Z,49.18
2023-04-15T00:22:47.460Z,49.26
2023-04-15T00:24:48.921Z,49.31
2023-04-15T00:26:50.325Z,49.13
2023-04-15T00:28:54.091Z,49.07
2023-04-15T00:30:55.631Z,49.34
2023-04-15T00:33:03.702Z,49.19
2023-04-15T00:35:05.605Z,49.58
2023-04-15T00:37:07.797Z,49.55
2023-04-15T00:39:09.508Z,49.51
2023-04-15T00:41:11.902Z,49.40
2023-04-15T00:43:13.773Z,49.44
2023-04-15T00:45:15.910Z,49.60
2023-04-15T00:47:21.256Z,49.57
2023-04-15T00:49:29.433Z,49.60
2023-04-15T00:51:36.367Z,49.42
2023-04-15T00:53:37.886Z,49.57
2023-04-15T00:55:40.138Z,49.54
2023-04-15T00:57:42.629Z,49.48
2023-04-15T00:59:44.562Z,49.49
2023-04-15T01:01:47.097Z,49.55
2023-04-15T01:04:15.985Z,49.55
2023-04-15T01:06:21.455Z,49.55
2023-04-15T01:08:23.063Z,50.04
2023-04-15T01:10:24.675Z,49.65
2023-04-15T01:12:27.205Z,49.64
2023-04-15T01:14:29.395Z,49.83
2023-04-15T01:16:31.596Z,49.75
2023-04-15T01:18:33.702Z,49.75
2023-04-15T01:20:37.334Z,49.75
2023-04-15T01:22:39.488Z,50.14
2023-04-15T01:24:55.406Z,49.83
2023-04-15T01:26:56.958Z,49.93
2023-04-15T01:28:59.090Z,49.91
2023-04-15T01:31:19.436Z,49.72
2023-04-15T01:33:21.302Z,49.95
2023-04-15T01:35:23.976Z,49.85
2023-04-15T01:37:33.686Z,50.15
2023-04-15T01:39:38.107Z,50.06
2023-04-15T01:41:42.752Z,50.17
2023-04-15T01:43:44.410Z,50.18
2023-04-15T01:45:45.962Z,50.29
2023-04-15T01:47:48.029Z,49.95
2023-04-15T01:49:52.372Z,49.76
2023-04-15T01:51:54.252Z,49.98
2023-04-15T01:53:59.264Z,50.38
2023-04-15T01:56:01.337Z,50.17
2023-04-15T01:58:03.316Z,50.20
2023-04-15T02:00:07.718Z,50.54
2023-04-15T02:02:17.902Z,50.26
2023-04-15T02:04:19.746Z,50.43
2023-04-15T02:06:21.412Z,50.39
2023-04-15T02:08:32.074Z,50.49
2023-04-15T02:10:33.597Z,50.51
2023-04-15T02:12:35.108Z,50.50
2023-04-15T02:14:37.245Z,50.64
2023-04-15T02:16:39.510Z,50.77
2023-04-15T02:18:45.066Z,50.77
2023-04-15T02:20:47.128Z,50.52
2023-04-15T02:22:49.141Z,50.65
2023-04-15T02:24:50.791Z,50.67
2023-04-15T02:26:52.264Z,50.79
2023-04-15T02:28:57.834Z,50.83
2023-04-15T02:30:59.794Z,50.63
2023-04-15T02:33:04.654Z,50.66
2023-04-15T02:35:08.801Z,50.78
2023-04-15T02:37:11.976Z,51.04
2023-04-15T02:39:16.745Z,50.96
2023-04-15T02:41:18.808Z,50.70
2023-04-15T02:43:20.687Z,51.04
2023-04-15T02:45:24.174Z,50.88
2023-04-15T02:47:26.110Z,51.16
2023-04-15T02:49:29.950Z,50.86
2023-04-15T02:51:33.892Z,50.85
2023-04-15T02:53:36.302Z,51.07
2023-04-15T02:55:40.812Z,51.11
2023-04-15T02:57:44.554Z,51.05
2023-04-15T02:59:48.946Z,51.06
2023-04-15T03:01:50.942Z,51.16
2023-04-15T03:03:52.993Z,51.25
2023-04-15T03:05:54.725Z,51.11
2023-04-15T03:08:00.616Z,50.87
2023-04-15T03:10:04.526Z,51.04
2023-04-15T03:12:06.327Z,51.00
2023-04-15T03:14:07.984Z,51.03
2023-04-15T03:16:12.720Z,50.72
2023-04-15T03:18:14.520Z,50.72
2023-04-15T03:20:19.644Z,50.88
2023-04-15T03:22:22.728Z,50.97
2023-04-15T03:24:25.012Z,50.85
2023-04-15T03:26:31.278Z,50.86
2023-04-15T03:28:45.680Z,51.01
2023-04-15T03:30:53.476Z,50.46
2023-04-15T03:32:55.017Z,50.98
2023-04-15T03:34:58.028Z,50.72
2023-04-15T03:37:00.626Z,50.82
2023-04-15T03:39:02.389Z,50.54
2023-04-15T03:41:04.299Z,50.84
2023-04-15T03:43:06.363Z,50.97
2023-04-15T03:45:08.987Z,50.87
2023-04-15T03:47:10.956Z,50.93
2023-04-15T03:49:14.171Z,50.76
2023-04-15T03:51:18.105Z,50.75
2023-04-15T03:53:20.910Z,50.92
2023-04-15T03:55:22.354Z,50.95
2023-04-15T03:57:23.922Z,50.89
2023-04-15T03:59:27.972Z,51.20
2023-04-15T04:01:30.090Z,51.27
2023-04-15T04:03:32.022Z,50.90
2023-04-15T04:05:33.908Z,51.02
2023-04-15T04:07:35.728Z,51.19
2023-04-15T04:09:41.564Z,50.90
2023-04-15T04:11:43.231Z,50.90
2023-04-15T04:13:47.532Z,51.15
2023-04-15T04:15:49.168Z,51.02
2023-04-15T04:17:51.662Z,51.25
2023-04-15T04:19:55.619Z,51.19
2023-04-15T04:21:57.097Z,51.20
2023-04-15T04:24:01.823Z,51.29
2023-04-15T04:26:06.493Z,51.15
2023-04-15T04:28:11.809Z,51.15
2023-04-15T04:30:13.356Z,51.18
2023-04-15T04:32:14.959Z,51.20
2023-04-15T04:34:16.607Z,51.03
2023-04-15T04:36:18.477Z,51.34
2023-04-15T04:38:19.901Z,51.04
2023-04-15T04:40:21.509Z,51.10
2023-04-15T04:42:26.093Z,51.30
2023-04-15T04:44:27.670Z,51.15
2023-04-15T04:46:30.359Z,51.25
2023-04-15T04:48:31.900Z,51.23
2023-04-15T04:50:33.622Z,51.22
2023-04-15T04:52:37.956Z,51.48
2023-04-15T04:54:45.570Z,51.35
2023-04-15T04:56:47.278Z,51.42
2023-04-15T04:58:48.930Z,51.85
2023-04-15T05:00:51.033Z,51.67
2023-04-15T05:03:07.589Z,51.29
2023-04-15T05:05:10.136Z,51.32
2023-04-15T05:07:12.151Z,51.62
2023-04-15T05:09:19.144Z,51.47
2023-04-15T05:11:20.948Z,51.44
2023-04-15T05:13:22.612Z,51.73
2023-04-15T05:15:24.632Z,51.35
2023-04-15T05:17:27.606Z,51.52
2023-04-15T05:19:29.085Z,51.63
2023-04-15T05:21:31.666Z,51.68
2023-04-15T05:23:33.824Z,51.61
2023-04-15T05:25:35.626Z,51.51
2023-04-15T05:27:37.198Z,51.49
2023-04-15T05:29:41.043Z,51.60
2023-04-15T05:31:44.363Z,51.59
2023-04-15T05:33:46.183Z,51.50
2023-04-15T05:35:47.622Z,51.40
2023-04-15T05:37:49.253Z,51.38
2023-04-15T05:39:53.738Z,51.67
2023-04-15T05:41:55.219Z,51.60
2023-04-15T05:43:59.810Z,51.61
2023-04-15T05:46:01.683Z,51.55
2023-04-15T05:48:06.519Z,51.50
2023-04-15T05:50:08.390Z,51.48
2023-04-15T05:52:09.844Z,51.45
2023-04-15T05:54:11.865Z,51.49
2023-04-15T05:56:13.433Z,51.22
2023-04-15T05:58:17.068Z,51.46
2023-04-15T06:00:19.077Z,51.49
2023-04-15T06:02:21.127Z,51.17
2023-04-15T06:04:22.961Z,51.49
2023-04-15T06:06:24.532Z,51.45
2023-04-15T06:08:26.125Z,51.69
2023-04-15T06:10:27.587Z,51.50
2023-04-15T06:12:33.744Z,51.85
2023-04-15T06:14:35.145Z,51.83
2023-04-15T06:16:38.044Z,51.50
2023-04-15T06:18:39.873Z,51.45
2023-04-15T06:20:41.873Z,51.58
2023-04-15T06:22:43.573Z,51.32
2023-04-15T06:24:45.117Z,51.42
2023-04-15T06:26:46.792Z,51.37
2023-04-15T06:28:50.609Z,51.15
2023-04-15T06:30:54.477Z,51.48
2023-04-15T06:32:56.251Z,51.58
2023-04-15T06:34:58.183Z,51.67
2023-04-15T06:37:01.136Z,51.62
2023-04-15T06:39:02.906Z,51.47
2023-04-15T06:41:09.205Z,51.68
2023-04-15T06:43:10.803Z,51.58
2023-04-15T06:45:24.853Z,51.58
2023-04-15T06:47:26.730Z,51.61
2023-04-15T06:49:28.451Z,51.65
2023-04-15T06:51:30.401Z,51.67
2023-04-15T06:53:32.063Z,51.70
2023-04-15T06:55:34.424Z,51.65
2023-04-15T06:57:42.037Z,51.58
2023-04-15T06:59:43.978Z,51.77
2023-04-15T07:01:45.680Z,51.69
2023-04-15T07:03:49.564Z,51.72
2023-04-15T07:05:51.052Z,51.70
2023-04-15T07:07:53.113Z,51.63
2023-04-15T07:09:54.726Z,51.86
2023-04-15T07:11:56.404Z,51.73
2023-04-15T07:14:00.320Z,51.71
2023-04-15T07:16:04.547Z,52.03
2023-04-15T07:18:06.528Z,51.83
2023-04-15T07:20:08.693Z,51.83
2023-04-15T07:22:10.342Z,52.12
2023-04-15T07:24:12.022Z,51.92
2023-04-15T07:26:13.955Z,51.84
2023-04-15T07:28:15.646Z,52.08
2023-04-15T07:30:17.625Z,52.14
2023-04-15T07:32:19.737Z,52.22
2023-04-15T07:34:24.479Z,52.04
2023-04-15T07:36:25.962Z,51.94
2023-04-15T07:38:27.410Z,51.98
2023-04-15T07:40:29.030Z,52.01
2023-04-15T07:42:30.787Z,51.83
2023-04-15T07:44:32.327Z,52.04
2023-04-15T07:46:37.330Z,52.07
2023-04-15T07:48:42.708Z,52.11
2023-04-15T07:50:44.486Z,52.23
2023-04-15T07:52:46.404Z,52.37
2023-04-15T07:54:47.798Z,52.34
2023-04-15T07:56:49.445Z,52.28
2023-04-15T07:58:53.698Z,52.46
2023-04-15T08:00:55.376Z,52.42
2023-04-15T08:02:57.625Z,52.25
2023-04-15T08:04:59.835Z,52.33
2023-04-15T08:07:01.597Z,52.37
2023-04-15T08:09:03.231Z,52.24
2023-04-15T08:11:09.285Z,52.38
2023-04-15T08:13:10.914Z,52.24
2023-04-15T08:15:14.060Z,52.47
2023-04-15T08:17:15.792Z,52.75
2023-04-15T08:19:20.065Z,52.82
2023-04-15T08:21:21.955Z,52.88
2023-04-15T08:23:23.569Z,53.04
2023-04-15T08:25:25.856Z,53.11
2023-04-15T08:27:27.400Z,53.19
2023-04-15T08:29:28.956Z,53.27
2023-04-15T08:31:30.716Z,53.22
2023-04-15T08:33:32.356Z,53.13
2023-04-15T08:35:36.843Z,53.23
2023-04-15T08:37:38.483Z,53.42
2023-04-15T08:39:40.013Z,53.24
2023-04-15T08:41:56.472Z,53.24
2023-04-15T08:44:01.991Z,53.20
2023-04-15T08:46:04.446Z,53.15
2023-04-15T08:48:07.381Z,53.09
2023-04-15T08:50:14.448Z,52.86
2023-04-15T08:52:16.260Z,52.88
2023-04-15T08:54:18.849Z,52.78
2023-04-15T08:56:27.029Z,53.14
2023-04-15T08:58:29.089Z,53.11
2023-04-15T09:00:31.410Z,53.27
2023-04-15T09:02:36.075Z,53.07
2023-04-15T09:04:39.576Z,52.81
2023-04-15T09:06:41.625Z,52.84
2023-04-15T09:08:45.774Z,52.76
2023-04-15T09:10:52.966Z,52.81
2023-04-15T09:12:55.133Z,52.67
2023-04-15T09:14:57.636Z,52.73
2023-04-15T09:17:01.448Z,52.84
2023-04-15T09:19:22.829Z,52.72
2023-04-15T09:21:24.970Z,52.84
2023-04-15T09:23:27.495Z,52.86
2023-04-15T09:25:29.766Z,52.73
2023-04-15T09:27:31.773Z,52.86
2023-04-15T09:29:33.652Z,52.95
2023-04-15T09:31:38.671Z,53.03
2023-04-15T09:33:56.714Z,53.27
2023-04-15T09:36:04.690Z,53.47
2023-04-15T09:38:07.997Z,53.13
2023-04-15T09:40:10.305Z,52.99
2023-04-15T09:42:17.553Z,52.96
2023-04-15T09:44:28.188Z,53.01
2023-04-15T09:46:47.073Z,53.09
2023-04-15T09:49:08.284Z,53.69
2023-04-15T09:51:09.918Z,53.24
2023-04-15T09:53:19.600Z,53.27
2023-04-15T09:55:21.285Z,53.45
2023-04-15T09:57:25.164Z,53.61
2023-04-15T09:59:26.733Z,53.57
2023-04-15T10:01:28.430Z,53.59
2023-04-15T10:03:32.395Z,53.73
2023-04-15T10:05:37.904Z,53.52
2023-04-15T10:07:41.269Z,54.26
2023-04-15T10:09:45.855Z,53.90
2023-04-15T10:11:49.821Z,53.84
2023-04-15T10:13:52.280Z,53.76
2023-04-15T10:16:07.495Z,53.68
2023-04-15T10:18:11.257Z,53.55
2023-04-15T10:20:14.675Z,53.67
2023-04-15T10:22:16.870Z,53.66
2023-04-15T10:24:19.391Z,53.62
2023-04-15T10:26:21.576Z,53.57
2023-04-15T10:28:23.280Z,53.23
2023-04-15T10:30:31.628Z,53.28
2023-04-15T10:32:33.451Z,53.29
2023-04-15T10:34:35.706Z,53.16
2023-04-15T10:36:39.459Z,53.16
2023-04-15T10:38:45.825Z,53.32
2023-04-15T10:40:50.588Z,53.54
2023-04-15T10:42:52.120Z,53.41
2023-04-15T10:44:56.997Z,53.49
2023-04-15T10:47:01.127Z,53.36
2023-04-15T10:49:07.486Z,53.43
2023-04-15T10:55:03.283Z,54.07
2023-04-15T10:57:13.933Z,53.94
2023-04-15T10:59:16.409Z,53.69
2023-04-15T11:01:20.214Z,53.88
2023-04-15T11:03:38.026Z,54.55
2023-04-15T11:05:39.579Z,54.00
2023-04-15T11:07:48.418Z,54.18
2023-04-15T11:09:49.972Z,54.23
2023-04-15T11:12:09.557Z,54.25
2023-04-15T11:14:16.494Z,54.13
2023-04-15T11:16:18.396Z,53.96
2023-04-15T11:18:30.425Z,53.92
2023-04-15T11:20:32.188Z,53.80
2023-04-15T11:22:34.078Z,53.74
2023-04-15T11:24:36.529Z,53.72
2023-04-15T11:26:38.105Z,53.68
2023-04-15T11:28:42.325Z,53.65
2023-04-15T11:30:45.044Z,53.85
2023-04-15T11:32:46.650Z,53.61
2023-04-15T11:34:48.951Z,53.68
2023-04-15T11:36:53.335Z,53.92
2023-04-15T11:38:55.592Z,54.00
2023-04-15T11:40:58.424Z,53.95
2023-04-15T11:43:10.036Z,54.49
2023-04-15T11:45:15.895Z,54.41
2023-04-15T11:47:31.016Z,54.38
2023-04-15T11:49:33.963Z,54.33
2023-04-15T11:51:35.853Z,54.28
2023-04-15T11:53:42.173Z,54.15
2023-04-15T11:55:49.705Z,53.82
2023-04-15T11:58:06.723Z,53.71
2023-04-15T12:00:09.722Z,53.49
2023-04-15T12:02:13.417Z,53.58
2023-04-15T12:04:22.533Z,53.41
2023-04-15T12:06:33.628Z,53.40
2023-04-15T12:09:12.265Z,53.42
2023-04-15T12:11:20.446Z,53.42
2023-04-15T12:13:24.890Z,53.20
2023-04-15T12:15:31.768Z,53.32
2023-04-15T12:17:51.585Z,53.14
2023-04-15T12:19:56.654Z,53.29
2023-04-15T12:24:25.496Z,53.32
2023-04-15T12:26:30.496Z,53.27
2023-04-15T12:28:32.154Z,53.10
2023-04-15T12:30:33.784Z,53.20
2023-04-15T12:32:36.038Z,53.10
2023-04-15T12:34:52.007Z,52.96
2023-04-15T12:36:57.800Z,52.85
2023-04-15T12:38:59.296Z,52.96
2023-04-15T12:41:03.598Z,52.93
2023-04-15T12:43:08.150Z,52.97
2023-04-15T12:45:09.747Z,53.11
2023-04-15T12:47:12.448Z,52.85
2023-04-15T12:49:20.030Z,52.89
2023-04-15T12:51:21.792Z,52.90
2023-04-15T12:53:23.293Z,52.85
2023-04-15T12:55:24.762Z,52.46
2023-04-15T12:57:26.314Z,52.58
2023-04-15T12:59:28.422Z,52.59
2023-04-15T13:01:32.438Z,52.46
2023-04-15T13:03:34.303Z,52.44
2023-04-15T13:05:37.087Z,52.52
2023-04-15T13:07:39.000Z,52.55
2023-04-15T13:09:40.626Z,52.61
2023-04-15T13:11:42.285Z,52.33
2023-04-15T13:13:44.804Z,52.60
2023-04-15T13:15:46.392Z,52.30
2023-04-15T13:17:48.300Z,52.53
2023-04-15T13:19:53.693Z,52.43
2023-04-15T13:21:55.526Z,52.40
2023-04-15T13:24:08.253Z,52.06
2023-04-15T13:26:10.357Z,52.18
2023-04-15T13:28:12.298Z,52.07
2023-04-15T13:30:13.807Z,51.73
2023-04-15T13:32:16.601Z,52.17
2023-04-15T13:34:18.194Z,52.31
2023-04-15T13:36:22.729Z,52.31
2023-04-15T13:38:27.210Z,52.30
2023-04-15T13:40:28.927Z,52.13
2023-04-15T13:42:30.515Z,52.09
2023-04-15T13:44:32.260Z,52.24
2023-04-15T13:46:40.135Z,52.15
2023-04-15T13:48:43.959Z,52.12
2023-04-15T13:50:45.702Z,51.97
2023-04-15T13:52:47.432Z,51.90
2023-04-15T13:54:49.135Z,51.94
2023-04-15T13:57:10.728Z,51.85
2023-04-15T13:59:17.699Z,52.02
2023-04-15T14:01:19.414Z,51.71
2023-04-15T14:03:21.599Z,51.81
2023-04-15T14:05:25.793Z,51.68
2023-04-15T14:07:29.674Z,51.71
2023-04-15T14:09:33.744Z,51.91
2023-04-15T14:11:49.866Z,51.62
2023-04-15T14:13:54.881Z,51.75
2023-04-15T14:15:57.326Z,51.51
2023-04-15T14:18:02.014Z,51.64
2023-04-15T14:20:04.155Z,51.67
2023-04-15T14:22:06.029Z,51.50
2023-04-15T14:24:07.970Z,51.47
2023-04-15T14:26:21.318Z,51.36
2023-04-15T14:28:22.943Z,51.23
2023-04-15T14:30:26.510Z,51.26
2023-04-15T14:32:30.120Z,51.33
2023-04-15T14:34:37.608Z,51.17
2023-04-15T14:36:40.414Z,51.44
2023-04-15T14:38:42.226Z,51.32
2023-04-15T14:40:46.776Z,51.55
2023-04-15T14:42:49.231Z,51.43
2023-04-15T14:44:50.882Z,51.38
2023-04-15T14:46:55.075Z,51.44
2023-04-15T14:48:57.215Z,51.56
2023-04-15T14:51:00.141Z,51.62
2023-04-15T14:53:02.359Z,51.41
2023-04-15T14:55:12.517Z,51.51
2023-04-15T14:57:14.128Z,51.53
2023-04-15T14:59:20.569Z,51.61
2023-04-15T15:01:22.229Z,51.58
2023-04-15T15:03:24.050Z,51.61
2023-04-15T15:05:28.586Z,51.64
2023-04-15T15:07:30.338Z,51.71
2023-04-15T15:09:59.428Z,51.80
2023-04-15T15:12:10.765Z,52.04
2023-04-15T15:14:12.315Z,52.19
2023-04-15T15:16:18.314Z,52.12
2023-04-15T15:18:20.596Z,51.91
2023-04-15T15:20:23.154Z,52.05
2023-04-15T15:22:26.179Z,52.14
2023-04-15T15:24:34.238Z,52.00
2023-04-15T15:26:36.089Z,52.16
2023-04-15T15:28:37.704Z,52.15
2023-04-15T15:30:48.179Z,52.45
2023-04-15T15:33:00.034Z,52.50
2023-04-15T15:35:02.185Z,52.64
2023-04-15T15:37:03.812Z,52.57
2023-04-15T15:39:05.987Z,52.83
2023-04-15T15:41:07.580Z,52.77
2023-04-15T15:43:09.218Z,53.13
2023-04-15T15:45:14.113Z,52.85
2023-04-15T15:47:16.448Z,53.24
2023-04-15T15:49:18.280Z,53.01
2023-04-15T15:51:22.154Z,53.10
2023-04-15T15:53:26.001Z,52.86
2023-04-15T15:55:30.557Z,53.07
2023-04-15T15:57:32.017Z,53.16
2023-04-15T15:59:33.976Z,53.17
2023-04-15T16:01:35.694Z,53.18
2023-04-15T16:03:37.534Z,53.36
2023-04-15T16:05:39.254Z,53.25
2023-04-15T16:07:40.948Z,53.19
2023-04-15T16:09:45.738Z,53.40
2023-04-15T16:11:47.288Z,53.40
2023-04-15T16:13:49.186Z,53.42
2023-04-15T16:15:50.830Z,53.41
2023-04-15T16:17:55.305Z,53.40
2023-04-15T16:20:00.869Z,53.51
2023-04-15T16:22:08.940Z,53.56
2023-04-15T16:24:10.967Z,53.80
2023-04-15T16:26:12.498Z,53.71
2023-04-15T16:28:25.664Z,53.58
2023-04-15T16:30:30.727Z,53.74
2023-04-15T16:32:32.398Z,53.53
2023-04-15T16:34:35.398Z,53.77
2023-04-15T16:36:40.893Z,53.67
2023-04-15T16:38:42.599Z,53.73
2023-04-15T16:40:48.381Z,53.45
2023-04-15T16:42:52.899Z,53.68
2023-04-15T16:44:56.252Z,53.70
2023-04-15T16:46:57.929Z,53.86
2023-04-15T16:48:59.585Z,53.74
2023-04-15T16:51:01.436Z,53.71
2023-04-15T16:53:06.105Z,53.55
2023-04-15T16:55:07.802Z,53.65
2023-04-15T16:57:09.577Z,53.59
2023-04-15T16:59:11.425Z,53.46
2023-04-15T17:01:14.780Z,53.57
2023-04-15T17:03:16.454Z,53.66
2023-04-15T17:05:18.390Z,53.40
2023-04-15T17:07:27.380Z,53.59
2023-04-15T17:09:30.818Z,53.70
2023-04-15T17:11:32.989Z,53.52
2023-04-15T17:13:34.526Z,53.49
2023-04-15T17:15:36.128Z,53.29
2023-04-15T17:17:37.914Z,53.24
2023-04-15T17:19:39.499Z,53.46
2023-04-15T17:21:41.431Z,53.24
2023-04-15T17:23:46.150Z,53.18
2023-04-15T17:25:50.797Z,53.58
2023-04-15T17:27:57.676Z,53.00
2023-04-15T17:30:02.185Z,53.10
2023-04-15T17:32:04.047Z,53.20
2023-04-15T17:34:10.305Z,53.35
2023-04-15T17:36:13.370Z,53.29
2023-04-15T17:38:17.006Z,53.14
2023-04-15T17:40:18.679Z,53.34
2023-04-15T17:42:21.505Z,53.44
2023-04-15T17:44:24.043Z,53.44
2023-04-15T17:46:30.693Z,53.23
2023-04-15T17:48:32.981Z,53.40
2023-04-15T17:50:34.869Z,53.37
2023-04-15T17:52:36.617Z,53.48
2023-04-15T17:54:38.213Z,53.29
2023-04-15T17:56:39.721Z,53.28
2023-04-15T17:58:41.267Z,53.45
2023-04-15T18:00:42.929Z,53.37
2023-04-15T18:02:49.059Z,53.51
2023-04-15T18:04:51.186Z,53.35
2023-04-15T18:06:53.087Z,53.59
2023-04-15T18:08:57.324Z,53.53
2023-04-15T18:10:58.972Z,53.22
2023-04-15T18:13:00.492Z,53.62
2023-04-15T18:15:03.109Z,53.79
2023-04-15T18:17:04.923Z,53.65
2023-04-15T18:19:06.620Z,53.66
2023-04-15T18:21:08.206Z,53.67
2023-04-15T18:23:09.659Z,53.68
2023-04-15T18:25:11.235Z,53.58
2023-04-15T18:27:12.688Z,53.49
2023-04-15T18:29:14.247Z,53.50
2023-04-15T18:31:15.875Z,55.00
2023-04-15T18:33:17.598Z,54.72
2023-04-15T18:35:19.071Z,54.40
2023-04-15T18:37:25.381Z,54.18
2023-04-15T18:39:27.582Z,54.42
2023-04-15T18:41:29.325Z,54.22
2023-04-15T18:43:31.240Z,54.33
2023-04-15T18:45:32.749Z,54.35
2023-04-15T18:47:34.379Z,54.01
2023-04-15T18:49:36.326Z,54.30
2023-04-15T18:51:37.872Z,54.22
2023-04-15T18:53:39.341Z,54.75
2023-04-15T18:55:40.862Z,54.59
2023-04-15T18:57:44.762Z,54.69
2023-04-15T18:59:46.663Z,54.65
2023-04-15T19:01:48.849Z,54.58
2023-04-15T19:03:50.466Z,54.52
2023-04-15T19:05:53.174Z,54.91
2023-04-15T19:07:56.602Z,54.44
2023-04-15T19:09:58.891Z,54.37
2023-04-15T19:12:00.349Z,54.36
2023-04-15T19:14:02.256Z,54.34
2023-04-15T19:16:04.238Z,54.23
2023-04-15T19:18:10.354Z,54.37
2023-04-15T19:20:12.250Z,54.22
2023-04-15T19:22:13.760Z,54.22
2023-04-15T19:24:19.662Z,54.11
2023-04-15T19:26:21.096Z,54.27
2023-04-15T19:28:22.627Z,54.03
2023-04-15T19:30:24.213Z,54.09
2023-04-15T19:32:25.823Z,54.17
2023-04-15T19:34:27.243Z,54.16
2023-04-15T19:36:28.934Z,54.13
2023-04-15T19:38:31.005Z,54.04
2023-04-15T19:40:32.582Z,54.07
2023-04-15T19:42:34.052Z,54.18
2023-04-15T19:44:37.141Z,54.17
2023-04-15T19:46:43.645Z,54.06
2023-04-15T19:48:45.393Z,54.02
2023-04-15T19:50:47.920Z,54.13
2023-04-15T19:52:49.419Z,54.24
2023-04-15T19:54:50.909Z,54.18
2023-04-15T19:56:52.350Z,54.13
2023-04-15T19:58:54.772Z,54.21
2023-04-15T20:00:56.737Z,54.23
2023-04-15T20:02:58.526Z,54.16
2023-04-15T20:05:00.259Z,54.24
2023-04-15T20:07:01.888Z,54.16
2023-04-15T20:09:03.469Z,54.36
2023-04-15T20:11:05.526Z,54.35
2023-04-15T20:13:07.288Z,54.46
2023-04-15T20:15:11.996Z,54.16
2023-04-15T20:17:14.713Z,54.43
2023-04-15T20:19:18.933Z,54.24
2023-04-15T20:21:20.677Z,54.27
2023-04-15T20:23:22.133Z,54.30
2023-04-15T20:25:23.715Z,54.41
2023-04-15T20:27:25.443Z,54.20
2023-04-15T20:29:27.660Z,54.45
2023-04-15T20:31:29.232Z,54.65
2023-04-15T20:33:30.827Z,54.43
2023-04-15T20:35:32.377Z,54.43
2023-04-15T20:37:34.481Z,54.36
2023-04-15T20:39:36.005Z,54.49
2023-04-15T20:41:37.423Z,54.42
2023-04-15T20:43:38.920Z,54.34
2023-04-15T20:45:40.469Z,54.52
2023-04-15T20:47:41.966Z,54.58
2023-04-15T20:49:47.233Z,54.46
2023-04-15T20:51:49.115Z,54.40
2023-04-15T20:53:50.532Z,54.53
2023-04-15T20:55:52.164Z,54.35
2023-04-15T20:57:54.636Z,54.90
2023-04-15T20:59:56.292Z,54.47
2023-04-15T21:01:58.184Z,54.63
2023-04-15T21:03:59.858Z,54.55
2023-04-15T21:06:01.438Z,54.58
2023-04-15T21:08:02.980Z,54.58
2023-04-15T21:10:04.885Z,54.72
2023-04-15T21:12:06.528Z,54.76
2023-04-15T21:14:08.499Z,54.70
2023-04-15T21:16:10.371Z,54.57
2023-04-15T21:18:11.869Z,54.75
2023-04-15T21:20:13.755Z,54.78
2023-04-15T21:22:15.447Z,54.93
2023-04-15T21:24:17.130Z,54.79
2023-04-15T21:26:18.705Z,54.99
2023-04-15T21:28:20.324Z,54.86
2023-04-15T21:30:24.832Z,54.77
2023-04-15T21:32:27.637Z,54.85
2023-04-15T21:34:29.333Z,54.96
2023-04-15T21:36:31.603Z,54.82
2023-04-15T21:38:34.131Z,54.85
2023-04-15T21:40:40.541Z,55.00
2023-04-15T21:42:45.639Z,54.91
2023-04-15T21:44:47.295Z,54.89
2023-04-15T21:46:51.935Z,55.02
2023-04-15T21:48:53.600Z,54.94
2023-04-15T21:50:59.464Z,54.95
2023-04-15T21:53:01.293Z,55.04
2023-04-15T21:55:02.913Z,55.09
2023-04-15T21:57:04.594Z,55.05
2023-04-15T21:59:06.534Z,55.02
2023-04-15T22:01:08.405Z,54.99
2023-04-15T22:03:10.441Z,55.11
2023-04-15T22:05:18.604Z,55.00
2023-04-15T22:07:20.069Z,54.96
2023-04-15T22:09:21.507Z,55.00
2023-04-15T22:11:26.992Z,55.06
2023-04-15T22:13:29.063Z,55.05
2023-04-15T22:15:30.584Z,55.20
2023-04-15T22:17:32.093Z,54.82
2023-04-15T22:19:33.832Z,55.14
2023-04-15T22:21:35.392Z,55.68
2023-04-15T22:23:38.050Z,55.48
2023-04-15T22:25:39.602Z,55.15
2023-04-15T22:27:41.118Z,55.33
2023-04-15T22:29:42.602Z,55.25
2023-04-15T22:31:44.297Z,55.42
2023-04-15T22:33:48.707Z,55.21
2023-04-15T22:35:51.677Z,55.10
2023-04-15T22:37:53.589Z,55.48
2023-04-15T22:39:55.460Z,55.28
2023-04-15T22:41:57.400Z,55.37
2023-04-15T22:43:59.071Z,55.37
2023-04-15T22:46:04.147Z,55.38
2023-04-15T22:48:05.854Z,55.26
2023-04-15T22:50:08.057Z,55.52
2023-04-15T22:52:12.271Z,55.36
2023-04-15T22:54:19.038Z,55.49
2023-04-15T22:56:22.138Z,55.37
2023-04-15T22:58:26.230Z,55.54
2023-04-15T23:00:27.769Z,55.52
2023-04-15T23:02:29.788Z,55.38
2023-04-15T23:04:31.879Z,55.45
2023-04-15T23:06:34.075Z,55.51
2023-04-15T23:08:41.471Z,55.77
2023-04-15T23:10:44.536Z,55.78
2023-04-15T23:12:46.838Z,55.50
2023-04-15T23:14:48.414Z,55.57
2023-04-15T23:16:49.868Z,55.45
2023-04-15T23:18:51.288Z,55.30
2023-04-15T23:20:52.898Z,55.58
2023-04-15T23:22:54.368Z,55.56
2023-04-15T23:24:56.111Z,55.50
2023-04-15T23:26:57.752Z,55.41
2023-04-15T23:28:59.186Z,55.64
2023-04-15T23:31:00.814Z,55.59
2023-04-15T23:33:02.527Z,55.52
2023-04-15T23:35:07.049Z,55.77
2023-04-15T23:37:08.555Z,55.57
2023-04-15T23:39:10.396Z,55.65
2023-04-15T23:41:12.257Z,55.61
2023-04-15T23:43:13.872Z,55.57
2023-04-15T23:45:18.073Z,55.75
2023-04-15T23:47:21.696Z,55.65
2023-04-15T23:49:23.400Z,55.79
2023-04-15T23:51:24.870Z,55.68
2023-04-15T23:53:26.510Z,55.89
2023-04-15T23:55:35.345Z,55.83
2023-04-15T23:57:36.756Z,55.73
2023-04-15T23:59:38.174Z,55.64
